createdAt,value
2018-11-11T00:00:44.176Z,984.77
2018-11-11T00:01:44.176Z,984.76
2018-11-11T00:02:44.185Z,984.79
2018-11-11T00:03:44.168Z,984.79
2018-11-11T00:04:44.162Z,984.87
2018-11-11T00:05:44.173Z,984.92
2018-11-11T00:06:44.156Z,984.92
2018-11-11T00:07:44.155Z,984.93
2018-11-11T00:08:44.151Z,984.94
2018-11-11T00:09:44.146Z,984.96
2018-11-11T00:10:44.153Z,984.99
2018-11-11T00:11:44.132Z,984.99
2018-11-11T00:12:44.131Z,985.05
2018-11-11T00:13:44.124Z,985.02
2018-11-11T00:14:44.124Z,985.09
2018-11-11T00:15:44.134Z,985.08
2018-11-11T00:16:44.117Z,985.08
2018-11-11T00:17:44.108Z,985.08
2018-11-11T00:18:44.104Z,985.05
2018-11-11T00:19:44.099Z,985.11
2018-11-11T00:20:44.095Z,985.08
2018-11-11T00:21:44.189Z,985.08
2018-11-11T00:22:44.091Z,985.03
2018-11-11T00:23:44.094Z,985.05
2018-11-11T00:24:44.078Z,984.97
2018-11-11T00:25:44.076Z,985
2018-11-11T00:26:44.071Z,984.94
2018-11-11T00:27:44.066Z,984.87
2018-11-11T00:28:44.223Z,984.8
2018-11-11T00:29:44.058Z,984.84
2018-11-11T00:30:44.054Z,984.82
2018-11-11T00:31:44.054Z,984.79
2018-11-11T00:32:44.044Z,984.79
2018-11-11T00:33:44.044Z,984.74
2018-11-11T00:34:44.036Z,984.79
2018-11-11T00:35:44.032Z,984.83
2018-11-11T00:36:44.032Z,984.91
2018-11-11T00:37:44.020Z,984.94
2018-11-11T00:38:44.017Z,984.87
2018-11-11T00:39:44.055Z,984.89
2018-11-11T00:40:44.008Z,984.9
2018-11-11T00:41:44.006Z,984.95
2018-11-11T00:42:43.993Z,984.96
2018-11-11T00:43:43.989Z,985.02
2018-11-11T00:44:43.987Z,984.95
2018-11-11T00:45:43.977Z,984.93
2018-11-11T00:46:43.975Z,984.9
2018-11-11T00:47:43.970Z,984.89
2018-11-11T00:48:45.571Z,984.8
2018-11-11T00:49:43.958Z,984.83
2018-11-11T00:50:43.957Z,984.83
2018-11-11T00:51:43.948Z,984.81
2018-11-11T00:52:43.960Z,984.85
2018-11-11T00:53:43.956Z,984.84
2018-11-11T00:54:43.932Z,984.78
2018-11-11T00:55:43.949Z,984.74
2018-11-11T00:56:43.922Z,984.73
2018-11-11T00:57:43.921Z,984.74
2018-11-11T00:58:43.935Z,984.71
2018-11-11T00:59:43.909Z,984.77
2018-11-11T01:00:43.911Z,984.71
2018-11-11T01:01:43.898Z,984.74
2018-11-11T01:02:43.904Z,984.78
2018-11-11T01:03:43.888Z,984.75
2018-11-11T01:04:43.895Z,984.79
2018-11-11T01:05:43.921Z,984.76
2018-11-11T01:06:43.872Z,984.72
2018-11-11T01:07:43.866Z,984.66
2018-11-11T01:08:43.862Z,984.71
2018-11-11T01:09:43.860Z,984.71
2018-11-11T01:10:43.854Z,984.68
2018-11-11T01:11:43.843Z,984.75
2018-11-11T01:12:43.841Z,984.74
2018-11-11T01:13:43.833Z,984.75
2018-11-11T01:14:43.825Z,984.7
2018-11-11T01:15:43.823Z,984.76
2018-11-11T01:16:43.815Z,984.75
2018-11-11T01:17:43.808Z,984.75
2018-11-11T01:18:43.805Z,984.8
2018-11-11T01:19:43.804Z,984.78
2018-11-11T01:20:43.792Z,984.82
2018-11-11T01:21:43.787Z,984.79
2018-11-11T01:22:43.788Z,984.89
2018-11-11T01:23:43.775Z,984.9
2018-11-11T01:24:43.768Z,984.92
2018-11-11T01:25:43.769Z,984.86
2018-11-11T01:26:43.754Z,984.89
2018-11-11T01:27:43.752Z,984.93
2018-11-11T01:28:43.744Z,984.93
2018-11-11T01:29:43.740Z,984.92
2018-11-11T01:30:43.732Z,984.94
2018-11-11T01:31:43.725Z,984.92
2018-11-11T01:32:43.732Z,984.88
2018-11-11T01:33:43.715Z,984.94
2018-11-11T01:34:43.717Z,984.89
2018-11-11T01:35:43.704Z,984.9
2018-11-11T01:36:43.697Z,984.86
2018-11-11T01:37:43.694Z,984.86
2018-11-11T01:38:43.696Z,984.87
2018-11-11T01:39:43.674Z,984.92
2018-11-11T01:40:43.669Z,984.93
2018-11-11T01:41:43.666Z,984.93
2018-11-11T01:42:43.662Z,984.89
2018-11-11T01:43:43.654Z,984.89
2018-11-11T01:44:43.648Z,984.82
2018-11-11T01:45:43.642Z,984.82
2018-11-11T01:46:43.637Z,984.85
2018-11-11T01:47:43.632Z,984.77
2018-11-11T01:48:43.628Z,984.83
2018-11-11T01:49:43.615Z,984.81
2018-11-11T01:50:43.614Z,984.86
2018-11-11T01:51:43.623Z,984.88
2018-11-11T01:52:43.600Z,984.84
2018-11-11T01:53:43.594Z,984.87
2018-11-11T01:54:43.591Z,984.88
2018-11-11T01:55:43.583Z,984.87
2018-11-11T01:56:43.595Z,984.9
2018-11-11T01:57:43.570Z,984.97
2018-11-11T01:58:43.568Z,985
2018-11-11T01:59:43.566Z,984.98
2018-11-11T02:00:43.562Z,985.01
2018-11-11T02:01:43.560Z,984.93
2018-11-11T02:02:43.543Z,984.95
2018-11-11T02:03:43.536Z,985.01
2018-11-11T02:04:43.531Z,984.99
2018-11-11T02:05:43.524Z,984.91
2018-11-11T02:06:43.525Z,984.93
2018-11-11T02:07:43.521Z,984.95
2018-11-11T02:08:43.505Z,984.92
2018-11-11T02:09:43.551Z,984.89
2018-11-11T02:10:43.494Z,984.93
2018-11-11T02:11:43.508Z,984.95
2018-11-11T02:12:43.486Z,984.98
2018-11-11T02:13:43.472Z,984.99
2018-11-11T02:14:43.467Z,984.93
2018-11-11T02:15:43.463Z,984.89
2018-11-11T02:16:43.457Z,984.9
2018-11-11T02:17:43.449Z,984.89
2018-11-11T02:18:43.446Z,984.85
2018-11-11T02:19:43.439Z,984.89
2018-11-11T02:20:43.439Z,984.91
2018-11-11T02:21:43.532Z,984.9
2018-11-11T02:22:43.426Z,984.84
2018-11-11T02:23:43.425Z,984.92
2018-11-11T02:24:43.409Z,984.9
2018-11-11T02:25:43.403Z,984.93
2018-11-11T02:26:43.400Z,984.92
2018-11-11T02:27:43.391Z,984.95
2018-11-11T02:28:43.390Z,984.91
2018-11-11T02:29:43.384Z,984.96
2018-11-11T02:30:43.388Z,984.95
2018-11-11T02:31:43.380Z,984.98
2018-11-11T02:32:43.370Z,984.97
2018-11-11T02:33:43.395Z,984.98
2018-11-11T02:34:43.370Z,984.96
2018-11-11T02:35:43.349Z,985
2018-11-11T02:36:43.346Z,984.97
2018-11-11T02:37:43.427Z,985.02
2018-11-11T02:38:43.333Z,985.03
2018-11-11T02:39:43.337Z,985.06
2018-11-11T02:40:43.348Z,985.04
2018-11-11T02:41:43.319Z,985.02
2018-11-11T02:42:43.337Z,984.94
2018-11-11T02:43:43.311Z,984.92
2018-11-11T02:44:43.304Z,984.91
2018-11-11T02:45:43.382Z,984.89
2018-11-11T02:46:43.299Z,984.84
2018-11-11T02:47:43.289Z,984.89
2018-11-11T02:48:43.287Z,984.88
2018-11-11T02:49:43.278Z,984.87
2018-11-11T02:50:43.275Z,984.85
2018-11-11T02:51:43.272Z,984.83
2018-11-11T02:52:43.273Z,984.85
2018-11-11T02:53:43.276Z,984.86
2018-11-11T02:54:43.254Z,984.81
2018-11-11T02:55:43.249Z,984.81
2018-11-11T02:56:43.246Z,984.81
2018-11-11T02:57:43.260Z,984.75
2018-11-11T02:58:43.241Z,984.71
2018-11-11T02:59:43.237Z,984.64
2018-11-11T03:00:43.228Z,984.59
2018-11-11T03:01:43.220Z,984.56
2018-11-11T03:02:43.215Z,984.55
2018-11-11T03:03:43.223Z,984.52
2018-11-11T03:04:43.211Z,984.51
2018-11-11T03:05:43.199Z,984.52
2018-11-11T03:06:43.193Z,984.52
2018-11-11T03:07:43.189Z,984.56
2018-11-11T03:08:43.185Z,984.61
2018-11-11T03:09:43.178Z,984.64
2018-11-11T03:10:43.173Z,984.61
2018-11-11T03:11:43.170Z,984.66
2018-11-11T03:12:43.164Z,984.66
2018-11-11T03:13:43.158Z,984.64
2018-11-11T03:14:43.154Z,984.61
2018-11-11T03:15:43.152Z,984.52
2018-11-11T03:16:43.152Z,984.55
2018-11-11T03:17:43.146Z,984.48
2018-11-11T03:18:43.138Z,984.4
2018-11-11T03:19:43.126Z,984.48
2018-11-11T03:20:43.121Z,984.49
2018-11-11T03:21:43.115Z,984.45
2018-11-11T03:22:43.110Z,984.47
2018-11-11T03:23:43.126Z,984.5
2018-11-11T03:24:43.098Z,984.47
2018-11-11T03:25:43.097Z,984.5
2018-11-11T03:26:43.089Z,984.57
2018-11-11T03:27:43.085Z,984.62
2018-11-11T03:28:43.080Z,984.64
2018-11-11T03:29:43.077Z,984.61
2018-11-11T03:30:43.075Z,984.6
2018-11-11T03:31:43.069Z,984.64
2018-11-11T03:32:43.065Z,984.71
2018-11-11T03:33:43.069Z,984.75
2018-11-11T03:34:43.077Z,984.76
2018-11-11T03:35:43.048Z,984.75
2018-11-11T03:36:43.050Z,984.77
2018-11-11T03:37:43.042Z,984.77
2018-11-11T03:38:43.043Z,984.77
2018-11-11T03:39:43.036Z,984.8
2018-11-11T03:40:43.031Z,984.8
2018-11-11T03:41:43.026Z,984.82
2018-11-11T03:42:43.026Z,984.78
2018-11-11T03:43:43.020Z,984.77
2018-11-11T03:44:43.015Z,984.8
2018-11-11T03:45:43.014Z,984.78
2018-11-11T03:46:43.005Z,984.75
2018-11-11T03:47:43.007Z,984.76
2018-11-11T03:48:42.997Z,984.68
2018-11-11T03:49:43.251Z,984.65
2018-11-11T03:50:42.990Z,984.68
2018-11-11T03:51:42.986Z,984.66
2018-11-11T03:52:42.979Z,984.69
2018-11-11T03:53:42.979Z,984.7
2018-11-11T03:54:42.973Z,984.69
2018-11-11T03:55:42.969Z,984.74
2018-11-11T03:56:42.964Z,984.74
2018-11-11T03:57:42.959Z,984.85
2018-11-11T03:58:43.007Z,984.84
2018-11-11T03:59:42.992Z,984.84
2018-11-11T04:00:42.953Z,984.75
2018-11-11T04:01:42.943Z,984.74
2018-11-11T04:02:42.941Z,984.73
2018-11-11T04:03:42.934Z,984.7
2018-11-11T04:04:42.932Z,984.72
2018-11-11T04:05:42.926Z,984.64
2018-11-11T04:06:42.925Z,984.58
2018-11-11T04:07:42.921Z,984.57
2018-11-11T04:08:42.911Z,984.66
2018-11-11T04:09:42.910Z,984.66
2018-11-11T04:10:42.910Z,984.68
2018-11-11T04:11:42.907Z,984.76
2018-11-11T04:12:42.896Z,984.81
2018-11-11T04:13:42.893Z,984.81
2018-11-11T04:14:42.885Z,984.75
2018-11-11T04:15:42.882Z,984.71
2018-11-11T04:16:42.899Z,984.65
2018-11-11T04:17:42.951Z,984.61
2018-11-11T04:18:42.867Z,984.61
2018-11-11T04:19:42.869Z,984.63
2018-11-11T04:20:42.859Z,984.6
2018-11-11T04:21:42.856Z,984.6
2018-11-11T04:22:42.849Z,984.58
2018-11-11T04:23:42.844Z,984.56
2018-11-11T04:24:42.853Z,984.52
2018-11-11T04:25:42.834Z,984.5
2018-11-11T04:26:42.831Z,984.47
2018-11-11T04:27:42.833Z,984.42
2018-11-11T04:28:42.820Z,984.47
2018-11-11T04:29:42.820Z,984.55
2018-11-11T04:30:42.811Z,984.58
2018-11-11T04:31:42.817Z,984.57
2018-11-11T04:32:42.803Z,984.49
2018-11-11T04:33:42.799Z,984.5
2018-11-11T04:34:42.799Z,984.43
2018-11-11T04:35:42.787Z,984.42
2018-11-11T04:36:42.783Z,984.38
2018-11-11T04:37:42.794Z,984.33
2018-11-11T04:38:42.778Z,984.31
2018-11-11T04:39:42.775Z,984.36
2018-11-11T04:40:42.777Z,984.38
2018-11-11T04:41:42.766Z,984.45
2018-11-11T04:42:42.761Z,984.44
2018-11-11T04:43:42.758Z,984.42
2018-11-11T04:44:42.758Z,984.39
2018-11-11T04:45:42.744Z,984.41
2018-11-11T04:46:42.739Z,984.46
2018-11-11T04:47:42.735Z,984.43
2018-11-11T04:48:42.730Z,984.45
2018-11-11T04:49:42.728Z,984.45
2018-11-11T04:50:42.722Z,984.42
2018-11-11T04:51:42.715Z,984.43
2018-11-11T04:52:42.723Z,984.43
2018-11-11T04:53:42.706Z,984.47
2018-11-11T04:54:42.704Z,984.42
2018-11-11T04:55:42.696Z,984.4
2018-11-11T04:56:42.692Z,984.29
2018-11-11T04:57:42.687Z,984.21
2018-11-11T04:58:42.684Z,984.11
2018-11-11T04:59:42.683Z,984.14
2018-11-11T05:00:42.672Z,984.31
2018-11-11T05:01:42.736Z,984.32
2018-11-11T05:02:42.662Z,984.34
2018-11-11T05:03:42.655Z,984.42
2018-11-11T05:04:42.717Z,984.41
2018-11-11T05:05:42.646Z,984.44
2018-11-11T05:06:42.641Z,984.39
2018-11-11T05:07:42.635Z,984.51
2018-11-11T05:08:42.630Z,984.41
2018-11-11T05:09:42.626Z,984.43
2018-11-11T05:10:42.622Z,984.4
2018-11-11T05:11:42.616Z,984.39
2018-11-11T05:12:42.609Z,984.4
2018-11-11T05:13:42.603Z,984.39
2018-11-11T05:14:42.615Z,984.39
2018-11-11T05:15:42.596Z,984.42
2018-11-11T05:16:42.594Z,984.42
2018-11-11T05:17:42.586Z,984.4
2018-11-11T05:18:42.580Z,984.39
2018-11-11T05:19:42.571Z,984.4
2018-11-11T05:20:42.568Z,984.42
2018-11-11T05:21:42.568Z,984.41
2018-11-11T05:22:42.569Z,984.39
2018-11-11T05:23:42.553Z,984.34
2018-11-11T05:24:42.548Z,984.35
2018-11-11T05:25:42.543Z,984.36
2018-11-11T05:26:42.538Z,984.33
2018-11-11T05:27:42.552Z,984.3
2018-11-11T05:28:42.527Z,984.3
2018-11-11T05:29:42.525Z,984.31
2018-11-11T05:30:42.561Z,984.32
2018-11-11T05:31:42.513Z,984.32
2018-11-11T05:32:42.514Z,984.28
2018-11-11T05:33:42.505Z,984.24
2018-11-11T05:34:42.501Z,984.22
2018-11-11T05:35:42.513Z,984.21
2018-11-11T05:36:42.495Z,984.17
2018-11-11T05:37:42.492Z,984.24
2018-11-11T05:38:42.486Z,984.35
2018-11-11T05:39:42.479Z,984.42
2018-11-11T05:40:42.513Z,984.45
2018-11-11T05:41:42.472Z,984.48
2018-11-11T05:42:42.466Z,984.51
2018-11-11T05:43:42.461Z,984.49
2018-11-11T05:44:42.469Z,984.54
2018-11-11T05:45:42.464Z,984.56
2018-11-11T05:46:42.463Z,984.59
2018-11-11T05:47:42.443Z,984.61
2018-11-11T05:48:42.442Z,984.62
2018-11-11T05:49:42.435Z,984.7
2018-11-11T05:50:44.326Z,984.69
2018-11-11T05:51:42.425Z,984.73
2018-11-11T05:52:42.428Z,984.75
2018-11-11T05:53:42.412Z,984.79
2018-11-11T05:54:42.427Z,984.87
2018-11-11T05:55:42.401Z,984.87
2018-11-11T05:56:42.400Z,984.86
2018-11-11T05:57:42.394Z,984.88
2018-11-11T05:58:42.389Z,984.9
2018-11-11T05:59:42.383Z,984.9
2018-11-11T06:00:42.383Z,984.86
2018-11-11T06:01:42.374Z,984.86
2018-11-11T06:02:42.385Z,984.87
2018-11-11T06:03:42.367Z,984.83
2018-11-11T06:04:42.381Z,984.76
2018-11-11T06:05:42.366Z,984.71
2018-11-11T06:06:42.356Z,984.72
2018-11-11T06:07:42.349Z,984.79
2018-11-11T06:08:42.345Z,984.82
2018-11-11T06:09:42.350Z,984.81
2018-11-11T06:10:42.340Z,984.78
2018-11-11T06:11:42.335Z,984.83
2018-11-11T06:12:42.329Z,984.8
2018-11-11T06:13:42.325Z,984.77
2018-11-11T06:14:42.320Z,984.78
2018-11-11T06:15:42.318Z,984.78
2018-11-11T06:16:42.314Z,984.8
2018-11-11T06:17:42.325Z,984.85
2018-11-11T06:18:42.303Z,984.88
2018-11-11T06:19:42.300Z,984.96
2018-11-11T06:20:42.295Z,985.01
2018-11-11T06:21:42.292Z,985.02
2018-11-11T06:22:42.287Z,985.1
2018-11-11T06:23:42.281Z,985.2
2018-11-11T06:24:42.287Z,985.25
2018-11-11T06:25:42.274Z,985.29
2018-11-11T06:26:42.273Z,985.27
2018-11-11T06:27:42.264Z,985.22
2018-11-11T06:28:42.268Z,985.22
2018-11-11T06:29:42.306Z,985.25
2018-11-11T06:30:42.268Z,985.3
2018-11-11T06:31:42.245Z,985.36
2018-11-11T06:32:42.243Z,985.43
2018-11-11T06:33:42.249Z,985.48
2018-11-11T06:34:42.236Z,985.53
2018-11-11T06:35:42.230Z,985.57
2018-11-11T06:36:42.224Z,985.59
2018-11-11T06:37:42.218Z,985.55
2018-11-11T06:38:42.214Z,985.6
2018-11-11T06:39:42.212Z,985.66
2018-11-11T06:40:42.208Z,985.73
2018-11-11T06:41:42.203Z,985.74
2018-11-11T06:42:42.208Z,985.77
2018-11-11T06:43:42.218Z,985.78
2018-11-11T06:44:42.199Z,985.85
2018-11-11T06:45:42.186Z,985.88
2018-11-11T06:46:42.180Z,985.91
2018-11-11T06:47:42.180Z,985.97
2018-11-11T06:48:42.180Z,986.08
2018-11-11T06:49:42.178Z,986.17
2018-11-11T06:50:42.181Z,986.23
2018-11-11T06:51:42.166Z,986.25
2018-11-11T06:52:42.155Z,986.29
2018-11-11T06:53:42.151Z,986.26
2018-11-11T06:54:42.149Z,986.31
2018-11-11T06:55:42.150Z,986.43
2018-11-11T06:56:42.140Z,986.45
2018-11-11T06:57:42.140Z,986.53
2018-11-11T06:58:42.131Z,986.59
2018-11-11T06:59:42.135Z,986.67
2018-11-11T07:00:42.127Z,986.63
2018-11-11T07:01:42.120Z,986.62
2018-11-11T07:02:42.116Z,986.73
2018-11-11T07:03:42.107Z,986.71
2018-11-11T07:04:42.109Z,986.73
2018-11-11T07:05:42.106Z,986.68
2018-11-11T07:06:42.096Z,986.62
2018-11-11T07:07:42.139Z,986.54
2018-11-11T07:08:42.086Z,986.63
2018-11-11T07:09:42.086Z,986.78
2018-11-11T07:10:42.080Z,986.89
2018-11-11T07:11:42.074Z,986.94
2018-11-11T07:12:42.071Z,987.05
2018-11-11T07:13:42.068Z,987.03
2018-11-11T07:14:42.061Z,987.01
2018-11-11T07:15:42.067Z,987.06
2018-11-11T07:16:42.081Z,987.06
2018-11-11T07:17:42.049Z,986.99
2018-11-11T07:18:42.045Z,987
2018-11-11T07:19:42.050Z,986.96
2018-11-11T07:20:42.046Z,986.97
2018-11-11T07:21:42.037Z,986.95
2018-11-11T07:22:42.040Z,986.93
2018-11-11T07:23:42.085Z,986.95
2018-11-11T07:24:42.027Z,986.9
2018-11-11T07:25:42.018Z,986.9
2018-11-11T07:26:42.013Z,986.83
2018-11-11T07:27:42.010Z,986.83
2018-11-11T07:28:42.008Z,986.9
2018-11-11T07:29:42.000Z,986.93
2018-11-11T07:30:42.001Z,986.95
2018-11-11T07:31:41.995Z,987
2018-11-11T07:32:41.992Z,986.99
2018-11-11T07:33:41.997Z,986.95
2018-11-11T07:34:41.986Z,986.96
2018-11-11T07:35:41.987Z,986.95
2018-11-11T07:36:41.973Z,986.89
2018-11-11T07:37:41.976Z,986.87
2018-11-11T07:38:41.969Z,986.82
2018-11-11T07:39:41.961Z,986.84
2018-11-11T07:40:41.953Z,986.82
2018-11-11T07:41:41.952Z,986.78
2018-11-11T07:42:41.947Z,986.87
2018-11-11T07:43:41.943Z,986.86
2018-11-11T07:44:41.939Z,986.87
2018-11-11T07:45:41.941Z,986.9
2018-11-11T07:46:41.937Z,986.93
2018-11-11T07:47:41.966Z,986.94
2018-11-11T07:48:41.922Z,986.94
2018-11-11T07:49:41.920Z,986.95
2018-11-11T07:50:41.915Z,986.98
2018-11-11T07:51:41.910Z,986.99
2018-11-11T07:52:41.912Z,987.04
2018-11-11T07:53:41.911Z,987.01
2018-11-11T07:54:41.906Z,987
2018-11-11T07:55:41.917Z,987.05
2018-11-11T07:56:41.920Z,987.06
2018-11-11T07:57:41.896Z,987.16
2018-11-11T07:58:41.887Z,987.14
2018-11-11T07:59:41.897Z,987.21
2018-11-11T08:00:41.880Z,987.22
2018-11-11T08:01:41.942Z,987.27
2018-11-11T08:02:41.870Z,987.3
2018-11-11T08:03:41.870Z,987.28
2018-11-11T08:04:41.867Z,987.31
2018-11-11T08:05:41.862Z,987.38
2018-11-11T08:06:41.861Z,987.35
2018-11-11T08:07:41.854Z,987.36
2018-11-11T08:08:41.860Z,987.35
2018-11-11T08:09:41.849Z,987.32
2018-11-11T08:10:41.844Z,987.34
2018-11-11T08:11:41.843Z,987.29
2018-11-11T08:12:41.850Z,987.28
2018-11-11T08:13:41.833Z,987.3
2018-11-11T08:14:41.831Z,987.27
2018-11-11T08:15:41.828Z,987.26
2018-11-11T08:16:41.871Z,987.25
2018-11-11T08:17:41.823Z,987.27
2018-11-11T08:18:41.822Z,987.27
2018-11-11T08:19:41.825Z,987.26
2018-11-11T08:20:41.816Z,987.26
2018-11-11T08:21:41.812Z,987.27
2018-11-11T08:22:41.816Z,987.24
2018-11-11T08:23:41.805Z,987.26
2018-11-11T08:24:41.801Z,987.27
2018-11-11T08:25:41.808Z,987.29
2018-11-11T08:26:41.796Z,987.32
2018-11-11T08:27:41.803Z,987.3
2018-11-11T08:28:41.790Z,987.34
2018-11-11T08:29:41.785Z,987.35
2018-11-11T08:30:41.784Z,987.34
2018-11-11T08:31:41.781Z,987.35
2018-11-11T08:32:41.783Z,987.36
2018-11-11T08:33:41.774Z,987.38
2018-11-11T08:34:41.777Z,987.41
2018-11-11T08:35:41.770Z,987.43
2018-11-11T08:36:41.767Z,987.5
2018-11-11T08:37:41.767Z,987.52
2018-11-11T08:38:41.765Z,987.52
2018-11-11T08:39:41.758Z,987.52
2018-11-11T08:40:41.876Z,987.52
2018-11-11T08:41:41.751Z,987.55
2018-11-11T08:42:41.747Z,987.51
2018-11-11T08:43:41.748Z,987.56
2018-11-11T08:44:41.781Z,987.59
2018-11-11T08:45:41.743Z,987.59
2018-11-11T08:46:41.736Z,987.64
2018-11-11T08:47:41.735Z,987.61
2018-11-11T08:48:41.731Z,987.63
2018-11-11T08:49:41.727Z,987.62
2018-11-11T08:50:41.726Z,987.64
2018-11-11T08:51:41.742Z,987.66
2018-11-11T08:52:41.723Z,987.64
2018-11-11T08:53:41.718Z,987.61
2018-11-11T08:54:41.714Z,987.65
2018-11-11T08:55:41.714Z,987.62
2018-11-11T08:56:41.710Z,987.62
2018-11-11T08:57:41.707Z,987.65
2018-11-11T08:58:41.704Z,987.62
2018-11-11T08:59:41.702Z,987.57
2018-11-11T09:00:41.710Z,987.52
2018-11-11T09:01:41.697Z,987.53
2018-11-11T09:02:41.695Z,987.64
2018-11-11T09:03:41.694Z,987.55
2018-11-11T09:04:41.766Z,987.57
2018-11-11T09:05:41.684Z,987.62
2018-11-11T09:06:41.684Z,987.6
2018-11-11T09:07:41.682Z,987.56
2018-11-11T09:08:41.681Z,987.52
2018-11-11T09:09:41.675Z,987.51
2018-11-11T09:10:41.675Z,987.51
2018-11-11T09:11:41.674Z,987.54
2018-11-11T09:12:41.667Z,987.57
2018-11-11T09:13:41.670Z,987.59
2018-11-11T09:14:41.663Z,987.52
2018-11-11T09:15:41.660Z,987.49
2018-11-11T09:16:41.666Z,987.42
2018-11-11T09:17:41.665Z,987.41
2018-11-11T09:18:41.660Z,987.45
2018-11-11T09:19:41.655Z,987.51
2018-11-11T09:20:41.647Z,987.46
2018-11-11T09:21:41.647Z,987.47
2018-11-11T09:22:41.644Z,987.42
2018-11-11T09:23:41.690Z,987.45
2018-11-11T09:24:41.640Z,987.5
2018-11-11T09:25:41.649Z,987.55
2018-11-11T09:26:41.635Z,987.54
2018-11-11T09:27:41.635Z,987.52
2018-11-11T09:28:41.632Z,987.54
2018-11-11T09:29:41.723Z,987.55
2018-11-11T09:30:41.625Z,987.59
2018-11-11T09:31:41.628Z,987.64
2018-11-11T09:32:41.623Z,987.66
2018-11-11T09:33:41.625Z,987.64
2018-11-11T09:34:41.620Z,987.66
2018-11-11T09:35:41.621Z,987.68
2018-11-11T09:36:41.617Z,987.68
2018-11-11T09:37:41.614Z,987.7
2018-11-11T09:38:41.611Z,987.73
2018-11-11T09:39:41.622Z,987.8
2018-11-11T09:40:41.608Z,987.82
2018-11-11T09:41:41.609Z,987.78
2018-11-11T09:42:41.752Z,987.82
2018-11-11T09:43:41.606Z,987.82
2018-11-11T09:44:41.606Z,987.82
2018-11-11T09:45:41.616Z,987.84
2018-11-11T09:46:41.598Z,987.83
2018-11-11T09:47:41.614Z,987.82
2018-11-11T09:48:41.595Z,987.84
2018-11-11T09:49:41.606Z,987.86
2018-11-11T09:50:41.594Z,987.88
2018-11-11T09:51:41.591Z,987.83
2018-11-11T09:52:41.601Z,987.8
2018-11-11T09:53:41.587Z,987.83
2018-11-11T09:54:41.586Z,987.81
2018-11-11T09:55:41.586Z,987.85
2018-11-11T09:56:41.587Z,987.77
2018-11-11T09:57:41.582Z,987.78
2018-11-11T09:58:41.654Z,987.83
2018-11-11T09:59:41.594Z,987.87
2018-11-11T10:00:41.578Z,987.89
2018-11-11T10:01:41.577Z,987.84
2018-11-11T10:02:41.580Z,987.79
2018-11-11T10:03:41.575Z,987.82
2018-11-11T10:04:41.581Z,987.87
2018-11-11T10:05:41.571Z,987.94
2018-11-11T10:06:41.655Z,987.9
2018-11-11T10:07:41.570Z,987.96
2018-11-11T10:08:41.570Z,987.92
2018-11-11T10:09:41.581Z,987.91
2018-11-11T10:10:41.574Z,987.93
2018-11-11T10:11:41.574Z,987.91
2018-11-11T10:12:41.606Z,987.87
2018-11-11T10:13:41.561Z,987.84
2018-11-11T10:14:41.576Z,987.83
2018-11-11T10:15:41.566Z,987.79
2018-11-11T10:16:41.560Z,987.8
2018-11-11T10:17:41.556Z,987.82
2018-11-11T10:18:41.559Z,987.86
2018-11-11T10:19:41.558Z,987.9
2018-11-11T10:20:41.583Z,987.89
2018-11-11T10:21:41.555Z,987.85
2018-11-11T10:22:41.553Z,987.77
2018-11-11T10:23:41.589Z,987.79
2018-11-11T10:24:41.552Z,987.84
2018-11-11T10:25:41.576Z,987.81
2018-11-11T10:26:41.555Z,987.82
2018-11-11T10:27:41.553Z,987.87
2018-11-11T10:28:41.548Z,987.82
2018-11-11T10:29:41.629Z,987.87
2018-11-11T10:30:41.567Z,987.92
2018-11-11T10:31:41.546Z,987.83
2018-11-11T10:32:41.553Z,987.89
2018-11-11T10:33:41.675Z,987.93
2018-11-11T10:34:41.557Z,987.91
2018-11-11T10:35:41.555Z,987.9
2018-11-11T10:36:41.549Z,987.85
2018-11-11T10:37:41.547Z,987.91
2018-11-11T10:38:41.546Z,987.95
2018-11-11T10:39:41.553Z,987.9
2018-11-11T10:40:41.549Z,987.96
2018-11-11T10:41:41.547Z,987.97
2018-11-11T10:42:41.543Z,988.01
2018-11-11T10:43:41.541Z,987.97
2018-11-11T10:44:41.550Z,987.95
2018-11-11T10:45:41.540Z,987.89
2018-11-11T10:46:41.551Z,987.89
2018-11-11T10:47:41.546Z,987.88
2018-11-11T10:48:41.540Z,987.78
2018-11-11T10:49:41.540Z,987.79
2018-11-11T10:50:41.542Z,987.76
2018-11-11T10:51:41.544Z,987.76
2018-11-11T10:52:41.546Z,987.75
2018-11-11T10:53:41.550Z,987.69
2018-11-11T10:54:41.541Z,987.68
2018-11-11T10:55:41.539Z,987.66
2018-11-11T10:56:41.540Z,987.69
2018-11-11T10:57:41.540Z,987.69
2018-11-11T10:58:41.538Z,987.71
2018-11-11T10:59:41.557Z,987.7
2018-11-11T11:00:41.540Z,987.69
2018-11-11T11:01:41.540Z,987.66
2018-11-11T11:02:41.542Z,987.71
2018-11-11T11:03:41.542Z,987.69
2018-11-11T11:04:41.543Z,987.69
2018-11-11T11:05:41.540Z,987.65
2018-11-11T11:06:41.543Z,987.66
2018-11-11T11:07:41.577Z,987.7
2018-11-11T11:08:41.541Z,987.73
2018-11-11T11:09:41.550Z,987.73
2018-11-11T11:10:41.543Z,987.67
2018-11-11T11:11:41.544Z,987.68
2018-11-11T11:12:41.542Z,987.68
2018-11-11T11:13:41.558Z,987.69
2018-11-11T11:14:41.552Z,987.69
2018-11-11T11:15:41.544Z,987.64
2018-11-11T11:16:41.548Z,987.66
2018-11-11T11:17:41.548Z,987.63
2018-11-11T11:18:41.550Z,987.62
2018-11-11T11:19:41.544Z,987.64
2018-11-11T11:20:41.546Z,987.61
2018-11-11T11:21:41.549Z,987.59
2018-11-11T11:22:41.551Z,987.6
2018-11-11T11:23:41.548Z,987.58
2018-11-11T11:24:41.546Z,987.6
2018-11-11T11:25:41.617Z,987.62
2018-11-11T11:26:41.551Z,987.61
2018-11-11T11:27:41.554Z,987.55
2018-11-11T11:28:41.552Z,987.47
2018-11-11T11:29:41.558Z,987.43
2018-11-11T11:30:41.557Z,987.4
2018-11-11T11:31:41.732Z,987.38
2018-11-11T11:32:41.561Z,987.36
2018-11-11T11:33:41.565Z,987.37
2018-11-11T11:34:41.557Z,987.42
2018-11-11T11:35:41.590Z,987.39
2018-11-11T11:36:41.559Z,987.46
2018-11-11T11:37:41.608Z,987.48
2018-11-11T11:38:41.561Z,987.43
2018-11-11T11:39:41.572Z,987.38
2018-11-11T11:40:41.563Z,987.4
2018-11-11T11:41:41.573Z,987.38
2018-11-11T11:42:41.561Z,987.37
2018-11-11T11:43:41.562Z,987.39
2018-11-11T11:44:41.566Z,987.34
2018-11-11T11:45:41.563Z,987.33
2018-11-11T11:46:41.564Z,987.35
2018-11-11T11:47:41.564Z,987.39
2018-11-11T11:48:41.581Z,987.44
2018-11-11T11:49:41.644Z,987.49
2018-11-11T11:50:41.650Z,987.37
2018-11-11T11:51:41.564Z,987.4
2018-11-11T11:52:42.707Z,987.45
2018-11-11T11:53:41.567Z,987.45
2018-11-11T11:54:41.565Z,987.49
2018-11-11T11:55:41.577Z,987.48
2018-11-11T11:56:41.580Z,987.44
2018-11-11T11:57:42.457Z,987.39
2018-11-11T11:58:41.564Z,987.35
2018-11-11T11:59:41.567Z,987.36
2018-11-11T12:00:41.617Z,987.36
2018-11-11T12:01:41.570Z,987.46
2018-11-11T12:02:41.568Z,987.45
2018-11-11T12:03:41.582Z,987.54
2018-11-11T12:04:41.571Z,987.48
2018-11-11T12:05:41.578Z,987.49
2018-11-11T12:06:41.571Z,987.53
2018-11-11T12:07:41.570Z,987.48
2018-11-11T12:08:41.660Z,987.5
2018-11-11T12:09:41.569Z,987.48
2018-11-11T12:10:41.573Z,987.49
2018-11-11T12:11:41.571Z,987.48
2018-11-11T12:12:41.576Z,987.51
2018-11-11T12:13:41.574Z,987.5
2018-11-11T12:14:41.573Z,987.5
2018-11-11T12:15:41.579Z,987.47
2018-11-11T12:16:41.614Z,987.42
2018-11-11T12:17:41.578Z,987.49
2018-11-11T12:18:41.578Z,987.46
2018-11-11T12:19:41.575Z,987.48
2018-11-11T12:20:41.593Z,987.47
2018-11-11T12:21:41.576Z,987.5
2018-11-11T12:22:41.577Z,987.45
2018-11-11T12:23:41.586Z,987.46
2018-11-11T12:24:41.580Z,987.5
2018-11-11T12:25:41.580Z,987.5
2018-11-11T12:26:41.580Z,987.47
2018-11-11T12:27:41.584Z,987.42
2018-11-11T12:28:41.581Z,987.37
2018-11-11T12:29:41.581Z,987.35
2018-11-11T12:30:41.659Z,987.35
2018-11-11T12:31:41.592Z,987.37